sensor_id;sensor_type;location;lat;lon;timestamp;pressure;altitude;pressure_sealevel;temperature;humidity
64908;BME280;64365;-1.756;110.040;2022-10-31T00:00:18;102017.50;;;14.73;86.58
64908;BME280;64365;-1.756;110.040;2022-10-31T00:02:45;102012.50;;;14.71;86.83
64908;BME280;64365;-1.756;110.040;2022-10-31T00:05:11;102019.34;;;14.69;88.23
64908;BME280;64365;-1.756;110.040;2022-10-31T00:07:38;102022.41;;;14.71;88.44
64908;BME280;64365;-1.756;110.040;2022-10-31T00:10:05;102015.41;;;14.62;88.16
64908;BME280;64365;-1.756;110.040;2022-10-31T00:12:33;102018.44;;;14.61;87.87
64908;BME280;64365;-1.756;110.040;2022-10-31T00:15:00;102015.00;;;14.60;88.08
64908;BME280;64365;-1.756;110.040;2022-10-31T00:17:26;102019.22;;;14.61;88.08
64908;BME280;64365;-1.756;110.040;2022-10-31T00:19:53;102029.13;;;14.61;87.85
64908;BME280;64365;-1.756;110.040;2022-10-31T00:22:19;102025.72;;;14.60;87.50
64908;BME280;64365;-1.756;110.040;2022-10-31T00:24:46;102026.09;;;14.62;88.21
64908;BME280;64365;-1.756;110.040;2022-10-31T00:27:12;102030.78;;;14.65;88.01
64908;BME280;64365;-1.756;110.040;2022-10-31T00:29:40;102023.16;;;14.68;88.05
64908;BME280;64365;-1.756;110.040;2022-10-31T00:32:07;102025.09;;;14.71;88.31
64908;BME280;64365;-1.756;110.040;2022-10-31T00:34:33;102033.53;;;14.73;87.39
64908;BME280;64365;-1.756;110.040;2022-10-31T00:37:00;102032.78;;;14.72;86.51
64908;BME280;64365;-1.756;110.040;2022-10-31T00:39:26;102030.50;;;14.74;85.99
64908;BME280;64365;-1.756;110.040;2022-10-31T00:41:53;102031.28;;;14.75;85.92
64908;BME280;64365;-1.756;110.040;2022-10-31T00:44:20;102024.03;;;14.75;86.95
64908;BME280;64365;-1.756;110.040;2022-10-31T00:46:48;102022.09;;;14.76;85.85
64908;BME280;64365;-1.756;110.040;2022-10-31T00:49:14;102026.63;;;14.72;85.76
64908;BME280;64365;-1.756;110.040;2022-10-31T00:51:41;102035.47;;;14.72;85.18
64908;BME280;64365;-1.756;110.040;2022-10-31T00:54:08;102029.31;;;14.72;85.58
64908;BME280;64365;-1.756;110.040;2022-10-31T00:56:34;102029.69;;;14.70;85.17
64908;BME280;64365;-1.756;110.040;2022-10-31T00:59:01;102030.00;;;14.65;85.28
64908;BME280;64365;-1.756;110.040;2022-10-31T01:01:28;102032.31;;;14.67;84.50
64908;BME280;64365;-1.756;110.040;2022-10-31T01:03:57;102038.72;;;14.62;84.59
64908;BME280;64365;-1.756;110.040;2022-10-31T01:06:23;102042.13;;;14.59;84.01
64908;BME280;64365;-1.756;110.040;2022-10-31T01:08:50;102039.03;;;14.57;83.80
64908;BME280;64365;-1.756;110.040;2022-10-31T01:11:18;102035.94;;;14.55;85.93
64908;BME280;64365;-1.756;110.040;2022-10-31T01:13:46;102032.09;;;14.52;86.09
64908;BME280;64365;-1.756;110.040;2022-10-31T01:16:14;102030.47;;;14.47;85.53
64908;BME280;64365;-1.756;110.040;2022-10-31T01:18:42;102033.94;;;14.48;86.60
64908;BME280;64365;-1.756;110.040;2022-10-31T01:21:12;102041.97;;;14.48;86.61
64908;BME280;64365;-1.756;110.040;2022-10-31T01:23:39;102030.47;;;14.47;85.46
64908;BME280;64365;-1.756;110.040;2022-10-31T01:26:08;102033.13;;;14.44;84.99
64908;BME280;64365;-1.756;110.040;2022-10-31T01:28:37;102026.59;;;14.41;86.34
64908;BME280;64365;-1.756;110.040;2022-10-31T01:31:06;102024.25;;;14.40;86.45
64908;BME280;64365;-1.756;110.040;2022-10-31T01:33:33;102018.84;;;14.36;85.31
64908;BME280;64365;-1.756;110.040;2022-10-31T01:36:00;102002.75;;;14.32;84.75
64908;BME280;64365;-1.756;110.040;2022-10-31T01:38:28;102007.28;;;14.28;87.29
64908;BME280;64365;-1.756;110.040;2022-10-31T01:40:55;102007.63;;;14.27;87.46
64908;BME280;64365;-1.756;110.040;2022-10-31T01:43:21;102006.44;;;14.24;87.10
64908;BME280;64365;-1.756;110.040;2022-10-31T01:45:51;102000.28;;;14.20;85.66
64908;BME280;64365;-1.756;110.040;2022-10-31T01:48:23;102005.22;;;14.18;84.96
64908;BME280;64365;-1.756;110.040;2022-10-31T01:50:51;101995.66;;;14.17;86.60
64908;BME280;64365;-1.756;110.040;2022-10-31T01:53:21;101998.25;;;14.13;86.86
64908;BME280;64365;-1.756;110.040;2022-10-31T01:55:49;102000.91;;;14.10;87.21
64908;BME280;64365;-1.756;110.040;2022-10-31T01:58:20;101998.50;;;14.05;85.60
64908;BME280;64365;-1.756;110.040;2022-10-31T02:00:51;101993.88;;;14.02;85.90
64908;BME280;64365;-1.756;110.040;2022-10-31T02:03:18;101992.34;;;14.01;85.43
64908;BME280;64365;-1.756;110.040;2022-10-31T02:05:46;101995.78;;;14.01;86.45
64908;BME280;64365;-1.756;110.040;2022-10-31T02:08:16;101998.81;;;14.00;86.22
64908;BME280;64365;-1.756;110.040;2022-10-31T02:10:45;101999.94;;;13.98;86.84
64908;BME280;64365;-1.756;110.040;2022-10-31T02:13:13;101999.09;;;13.94;85.92
64908;BME280;64365;-1.756;110.040;2022-10-31T02:15:42;101999.81;;;13.91;85.54
64908;BME280;64365;-1.756;110.040;2022-10-31T02:18:10;101994.47;;;13.91;85.14
64908;BME280;64365;-1.756;110.040;2022-10-31T02:20:45;101991.28;;;13.82;87.99
64908;BME280;64365;-1.756;110.040;2022-10-31T02:26:27;101995.50;;;13.83;86.18
64908;BME280;64365;-1.756;110.040;2022-10-31T02:29:08;101986.66;;;13.79;88.37
64908;BME280;64365;-1.756;110.040;2022-10-31T02:31:43;101991.19;;;13.78;87.07
64908;BME280;64365;-1.756;110.040;2022-10-31T02:34:17;101995.34;;;13.76;87.24
64908;BME280;64365;-1.756;110.040;2022-10-31T02:36:52;101988.06;;;13.73;87.97
64908;BME280;64365;-1.756;110.040;2022-10-31T02:39:23;101991.91;;;13.75;86.54
64908;BME280;64365;-1.756;110.040;2022-10-31T02:42:01;101994.16;;;13.73;85.73
64908;BME280;64365;-1.756;110.040;2022-10-31T02:44:37;101993.00;;;13.71;85.21
64908;BME280;64365;-1.756;110.040;2022-10-31T02:47:08;102002.84;;;13.67;85.52
64908;BME280;64365;-1.756;110.040;2022-10-31T02:49:40;101996.66;;;13.62;84.76
64908;BME280;64365;-1.756;110.040;2022-10-31T02:52:17;102000.00;;;13.56;83.94
64908;BME280;64365;-1.756;110.040;2022-10-31T02:54:46;101996.13;;;13.53;84.68
64908;BME280;64365;-1.756;110.040;2022-10-31T02:57:13;101996.81;;;13.50;84.57
64908;BME280;64365;-1.756;110.040;2022-10-31T02:59:46;101997.03;;;13.41;84.08
64908;BME280;64365;-1.756;110.040;2022-10-31T03:02:28;101996.97;;;13.38;83.95
64908;BME280;64365;-1.756;110.040;2022-10-31T03:05:07;101998.78;;;13.34;83.97
64908;BME280;64365;-1.756;110.040;2022-10-31T03:07:42;101999.06;;;13.28;85.17
64908;BME280;64365;-1.756;110.040;2022-10-31T03:10:16;101997.44;;;13.24;84.37
64908;BME280;64365;-1.756;110.040;2022-10-31T03:12:54;102005.72;;;13.19;84.67
64908;BME280;64365;-1.756;110.040;2022-10-31T03:15:25;101997.66;;;13.15;83.77
64908;BME280;64365;-1.756;110.040;2022-10-31T03:17:59;101994.13;;;13.11;84.24
64908;BME280;64365;-1.756;110.040;2022-10-31T03:20:31;102002.09;;;13.07;84.14
64908;BME280;64365;-1.756;110.040;2022-10-31T03:23:00;102001.66;;;13.05;83.64
64908;BME280;64365;-1.756;110.040;2022-10-31T03:25:30;102011.13;;;13.03;83.55
64908;BME280;64365;-1.756;110.040;2022-10-31T03:27:59;102002.63;;;12.97;83.66
64908;BME280;64365;-1.756;110.040;2022-10-31T03:30:28;101997.06;;;12.86;83.89
64908;BME280;64365;-1.756;110.040;2022-10-31T03:32:59;102011.25;;;12.90;83.38
64908;BME280;64365;-1.756;110.040;2022-10-31T03:35:28;102003.13;;;12.83;83.77
64908;BME280;64365;-1.756;110.040;2022-10-31T03:37:58;102007.59;;;12.79;83.83
64908;BME280;64365;-1.756;110.040;2022-10-31T03:40:27;102008.31;;;12.76;83.88
64908;BME280;64365;-1.756;110.040;2022-10-31T03:42:57;102009.84;;;12.77;83.57
64908;BME280;64365;-1.756;110.040;2022-10-31T03:45:26;102011.66;;;12.73;84.11
64908;BME280;64365;-1.756;110.040;2022-10-31T03:47:54;102008.94;;;12.69;84.61
64908;BME280;64365;-1.756;110.040;2022-10-31T03:50:24;102015.78;;;12.70;85.69
64908;BME280;64365;-1.756;110.040;2022-10-31T03:52:57;102019.84;;;12.64;86.01
64908;BME280;64365;-1.756;110.040;2022-10-31T03:55:29;102011.84;;;12.64;85.46
64908;BME280;64365;-1.756;110.040;2022-10-31T03:57:59;102017.09;;;12.60;85.53
64908;BME280;64365;-1.756;110.040;2022-10-31T04:00:30;102027.69;;;12.57;86.15
64908;BME280;64365;-1.756;110.040;2022-10-31T04:03:00;102019.25;;;12.55;85.72
64908;BME280;64365;-1.756;110.040;2022-10-31T04:05:31;102014.97;;;12.50;85.38
64908;BME280;64365;-1.756;110.040;2022-10-31T04:07:59;102016.09;;;12.49;84.93
64908;BME280;64365;-1.756;110.040;2022-10-31T04:10:28;102015.25;;;12.45;84.33
64908;BME280;64365;-1.756;110.040;2022-10-31T04:12:59;102020.13;;;12.43;84.24
64908;BME280;64365;-1.756;110.040;2022-10-31T04:15:28;102014.72;;;12.39;84.64
64908;BME280;64365;-1.756;110.040;2022-10-31T04:17:58;102014.13;;;12.30;84.78
64908;BME280;64365;-1.756;110.040;2022-10-31T04:20:32;102011.13;;;12.32;83.87
64908;BME280;64365;-1.756;110.040;2022-10-31T04:22:59;102010.38;;;12.15;84.25
64908;BME280;64365;-1.756;110.040;2022-10-31T04:25:26;102001.41;;;12.23;84.70
64908;BME280;64365;-1.756;110.040;2022-10-31T04:27:53;102004.84;;;12.24;86.10
64908;BME280;64365;-1.756;110.040;2022-10-31T04:30:20;102009.41;;;12.23;87.37
64908;BME280;64365;-1.756;110.040;2022-10-31T04:32:47;102005.97;;;12.23;87.88
64908;BME280;64365;-1.756;110.040;2022-10-31T04:35:14;102008.28;;;12.24;89.05
64908;BME280;64365;-1.756;110.040;2022-10-31T04:37:42;102009.41;;;12.23;88.94
64908;BME280;64365;-1.756;110.040;2022-10-31T04:40:10;102008.63;;;12.23;87.22
64908;BME280;64365;-1.756;110.040;2022-10-31T04:42:36;102012.75;;;12.20;86.70
64908;BME280;64365;-1.756;110.040;2022-10-31T04:45:04;102016.09;;;12.17;86.06
64908;BME280;64365;-1.756;110.040;2022-10-31T04:47:31;102014.13;;;12.14;85.09
64908;BME280;64365;-1.756;110.040;2022-10-31T04:49:58;102022.47;;;12.12;87.67
64908;BME280;64365;-1.756;110.040;2022-10-31T04:52:24;102021.69;;;12.12;87.99
64908;BME280;64365;-1.756;110.040;2022-10-31T04:54:52;102013.69;;;12.12;86.44
64908;BME280;64365;-1.756;110.040;2022-10-31T04:57:18;102003.72;;;12.09;86.04
64908;BME280;64365;-1.756;110.040;2022-10-31T04:59:45;102011.28;;;12.07;85.65
64908;BME280;64365;-1.756;110.040;2022-10-31T05:02:11;102003.22;;;12.03;85.57
64908;BME280;64365;-1.756;110.040;2022-10-31T05:04:38;102013.44;;;12.01;87.13
64908;BME280;64365;-1.756;110.040;2022-10-31T05:07:04;102009.25;;;12.00;90.28
64908;BME280;64365;-1.756;110.040;2022-10-31T05:09:31;102002.00;;;12.01;89.42
64908;BME280;64365;-1.756;110.040;2022-10-31T05:11:59;102003.13;;;12.00;86.96
64908;BME280;64365;-1.756;110.040;2022-10-31T05:14:25;101996.16;;;11.95;85.98
64908;BME280;64365;-1.756;110.040;2022-10-31T05:16:52;102004.47;;;11.93;85.63
64908;BME280;64365;-1.756;110.040;2022-10-31T05:19:18;102007.03;;;11.90;85.51
64908;BME280;64365;-1.756;110.040;2022-10-31T05:21:45;102006.94;;;11.86;85.11
64908;BME280;64365;-1.756;110.040;2022-10-31T05:24:11;102010.72;;;11.85;84.82
64908;BME280;64365;-1.756;110.040;2022-10-31T05:26:38;102004.63;;;11.85;84.76
64908;BME280;64365;-1.756;110.040;2022-10-31T05:29:06;101996.22;;;11.83;84.48
64908;BME280;64365;-1.756;110.040;2022-10-31T05:31:33;102000.75;;;11.82;84.51
64908;BME280;64365;-1.756;110.040;2022-10-31T05:33:59;101993.00;;;11.77;84.97
64908;BME280;64365;-1.756;110.040;2022-10-31T05:36:26;101994.16;;;11.76;84.81
64908;BME280;64365;-1.756;110.040;2022-10-31T05:38:52;101993.69;;;11.74;84.70
64908;BME280;64365;-1.756;110.040;2022-10-31T05:41:19;101983.75;;;11.71;86.83
64908;BME280;64365;-1.756;110.040;2022-10-31T05:43:45;101981.41;;;11.69;86.23
64908;BME280;64365;-1.756;110.040;2022-10-31T05:46:13;101975.22;;;11.65;85.85
64908;BME280;64365;-1.756;110.040;2022-10-31T05:48:40;101972.88;;;11.63;85.59
64908;BME280;64365;-1.756;110.040;2022-10-31T05:51:07;101969.69;;;11.58;87.26
64908;BME280;64365;-1.756;110.040;2022-10-31T05:53:33;101970.16;;;11.60;87.15
64908;BME280;64365;-1.756;110.040;2022-10-31T05:56:00;101971.34;;;11.62;85.30
64908;BME280;64365;-1.756;110.040;2022-10-31T05:58:26;101963.72;;;11.61;85.92
64908;BME280;64365;-1.756;110.040;2022-10-31T06:00:53;101963.63;;;11.57;87.38
64908;BME280;64365;-1.756;110.040;2022-10-31T06:03:20;101965.16;;;11.58;86.89
64908;BME280;64365;-1.756;110.040;2022-10-31T06:05:47;101964.38;;;11.58;87.52
64908;BME280;64365;-1.756;110.040;2022-10-31T06:08:14;101965.94;;;11.59;86.60
64908;BME280;64365;-1.756;110.040;2022-10-31T06:10:40;101970.50;;;11.58;86.03
64908;BME280;64365;-1.756;110.040;2022-10-31T06:13:07;101964.38;;;11.58;89.71
64908;BME280;64365;-1.756;110.040;2022-10-31T06:15:33;101963.72;;;11.61;88.84
64908;BME280;64365;-1.756;110.040;2022-10-31T06:18:01;101966.38;;;11.61;86.21
64908;BME280;64365;-1.756;110.040;2022-10-31T06:20:30;101968.19;;;11.57;85.34
64908;BME280;64365;-1.756;110.040;2022-10-31T06:22:56;101958.13;;;11.50;84.91
64908;BME280;64365;-1.756;110.040;2022-10-31T06:32:13;101972.31;;;11.42;85.35
64908;BME280;64365;-1.756;110.040;2022-10-31T06:34:40;101970.00;;;11.40;86.26
64908;BME280;64365;-1.756;110.040;2022-10-31T06:37:10;101978.78;;;11.41;89.04
64908;BME280;64365;-1.756;110.040;2022-10-31T06:39:37;101979.31;;;11.46;90.01
64908;BME280;64365;-1.756;110.040;2022-10-31T06:42:04;101982.72;;;11.47;88.48
64908;BME280;64365;-1.756;110.040;2022-10-31T06:44:30;101985.41;;;11.47;87.24
64908;BME280;64365;-1.756;110.040;2022-10-31T06:46:57;101982.31;;;11.45;86.22
64908;BME280;64365;-1.756;110.040;2022-10-31T06:49:24;101983.88;;;11.46;86.90
64908;BME280;64365;-1.756;110.040;2022-10-31T06:51:50;101982.72;;;11.47;87.19
64908;BME280;64365;-1.756;110.040;2022-10-31T06:54:18;101985.41;;;11.47;87.62
64908;BME280;64365;-1.756;110.040;2022-10-31T06:56:46;101984.28;;;11.48;88.13
64908;BME280;64365;-1.756;110.040;2022-10-31T06:59:13;101982.06;;;11.50;88.27
64908;BME280;64365;-1.756;110.040;2022-10-31T07:01:39;101990.59;;;11.56;90.17
64908;BME280;64365;-1.756;110.040;2022-10-31T07:04:07;101977.63;;;11.54;89.78
64908;BME280;64365;-1.756;110.040;2022-10-31T07:06:33;101988.44;;;11.61;88.45
64908;BME280;64365;-1.756;110.040;2022-10-31T07:09:00;101987.00;;;11.64;90.32
64908;BME280;64365;-1.756;110.040;2022-10-31T07:11:28;101995.94;;;11.72;91.96
64908;BME280;64365;-1.756;110.040;2022-10-31T07:13:54;101986.81;;;11.73;91.50
64908;BME280;64365;-1.756;110.040;2022-10-31T07:16:21;101984.34;;;11.80;89.57
64908;BME280;64365;-1.756;110.040;2022-10-31T07:18:47;101984.88;;;11.86;88.79
64908;BME280;64365;-1.756;110.040;2022-10-31T07:21:14;101992.97;;;11.89;88.33
64908;BME280;64365;-1.756;110.040;2022-10-31T07:23:40;101990.84;;;11.95;87.93
64908;BME280;64365;-1.756;110.040;2022-10-31T07:26:08;101992.03;;;11.98;90.46
64908;BME280;64365;-1.756;110.040;2022-10-31T07:28:37;102006.22;;;12.18;91.36
64908;BME280;64365;-1.756;110.040;2022-10-31T07:31:03;102002.53;;;12.38;93.04
64908;BME280;64365;-1.756;110.040;2022-10-31T07:33:30;101999.72;;;12.67;92.14
64908;BME280;64365;-1.756;110.040;2022-10-31T07:35:56;101997.06;;;12.86;89.75
64908;BME280;64365;-1.756;110.040;2022-10-31T07:38:22;102007.44;;;13.07;88.03
64908;BME280;64365;-1.756;110.040;2022-10-31T07:40:50;101999.28;;;13.39;87.00
64908;BME280;64365;-1.756;110.040;2022-10-31T07:43:18;101999.56;;;13.77;85.20
64908;BME280;64365;-1.756;110.040;2022-10-31T07:45:50;101993.22;;;14.08;82.12
64908;BME280;64365;-1.756;110.040;2022-10-31T07:48:17;102002.81;;;14.36;81.77
64908;BME280;64365;-1.756;110.040;2022-10-31T07:50:44;101999.84;;;14.68;80.51
64908;BME280;64365;-1.756;110.040;2022-10-31T07:53:12;102001.72;;;14.94;79.56
64908;BME280;64365;-1.756;110.040;2022-10-31T07:55:39;102007.44;;;15.27;78.88
64908;BME280;64365;-1.756;110.040;2022-10-31T07:58:07;102002.09;;;15.64;77.84
64908;BME280;64365;-1.756;110.040;2022-10-31T08:00:35;102005.09;;;16.00;76.35
64908;BME280;64365;-1.756;110.040;2022-10-31T08:03:06;102010.94;;;16.13;74.48
64908;BME280;64365;-1.756;110.040;2022-10-31T08:05:34;102013.72;;;16.28;74.06
64908;BME280;64365;-1.756;110.040;2022-10-31T08:08:01;102006.47;;;16.36;73.23
64908;BME280;64365;-1.756;110.040;2022-10-31T08:10:28;102012.16;;;16.20;72.95
64908;BME280;64365;-1.756;110.040;2022-10-31T08:12:56;102018.50;;;16.00;72.94
64908;BME280;64365;-1.756;110.040;2022-10-31T08:15:23;102024.84;;;15.81;73.71
64908;BME280;64365;-1.756;110.040;2022-10-31T08:17:50;102017.34;;;15.60;74.85
64908;BME280;64365;-1.756;110.040;2022-10-31T08:20:18;102020.75;;;15.57;75.89
64908;BME280;64365;-1.756;110.040;2022-10-31T08:22:53;102013.53;;;15.61;75.65
64908;BME280;64365;-1.756;110.040;2022-10-31T08:25:21;102015.41;;;15.57;75.84
64908;BME280;64365;-1.756;110.040;2022-10-31T08:27:49;102023.44;;;15.57;75.96
64908;BME280;64365;-1.756;110.040;2022-10-31T08:30:16;102014.91;;;15.44;75.61
64908;BME280;64365;-1.756;110.040;2022-10-31T08:32:42;102017.78;;;15.28;77.05
64908;BME280;64365;-1.756;110.040;2022-10-31T08:35:09;102007.84;;;15.29;77.65
64908;BME280;64365;-1.756;110.040;2022-10-31T08:37:38;102004.13;;;15.41;78.07
64908;BME280;64365;-1.756;110.040;2022-10-31T08:40:05;101996.69;;;15.61;78.24
64908;BME280;64365;-1.756;110.040;2022-10-31T08:42:32;101996.72;;;15.68;77.01
64908;BME280;64365;-1.756;110.040;2022-10-31T08:44:59;101994.81;;;15.65;77.08
64908;BME280;64365;-1.756;110.040;2022-10-31T08:47:25;101994.03;;;15.64;76.97
64908;BME280;64365;-1.756;110.040;2022-10-31T08:49:53;101997.00;;;15.52;77.34
64908;BME280;64365;-1.756;110.040;2022-10-31T08:52:22;101996.50;;;15.43;77.35
64908;BME280;64365;-1.756;110.040;2022-10-31T08:54:50;101993.41;;;15.37;78.58
64908;BME280;64365;-1.756;110.040;2022-10-31T08:57:17;101990.41;;;15.46;79.23
64908;BME280;64365;-1.756;110.040;2022-10-31T08:59:43;101984.50;;;15.67;79.97
64908;BME280;64365;-1.756;110.040;2022-10-31T09:02:10;101976.25;;;15.87;79.66
64908;BME280;64365;-1.756;110.040;2022-10-31T09:04:36;101981.41;;;16.10;78.61
64908;BME280;64365;-1.756;110.040;2022-10-31T09:07:03;101974.97;;;16.22;78.11
64908;BME280;64365;-1.756;110.040;2022-10-31T09:09:29;101963.94;;;16.30;77.84
64908;BME280;64365;-1.756;110.040;2022-10-31T09:11:57;101971.28;;;16.48;78.19
64908;BME280;64365;-1.756;110.040;2022-10-31T09:14:24;101978.31;;;16.71;78.14
64908;BME280;64365;-1.756;110.040;2022-10-31T09:16:51;101982.28;;;16.98;78.10
64908;BME280;64365;-1.756;110.040;2022-10-31T09:19:17;101971.63;;;17.27;77.23
64908;BME280;64365;-1.756;110.040;2022-10-31T09:21:44;101974.34;;;17.49;75.92
64908;BME280;64365;-1.756;110.040;2022-10-31T09:24:10;101964.75;;;17.73;75.55
64908;BME280;64365;-1.756;110.040;2022-10-31T09:26:37;101957.09;;;17.75;74.05
64908;BME280;64365;-1.756;110.040;2022-10-31T09:29:05;101955.53;;;17.71;73.96
64908;BME280;64365;-1.756;110.040;2022-10-31T09:31:34;101949.41;;;17.66;74.37
64908;BME280;64365;-1.756;110.040;2022-10-31T09:34:01;101961.69;;;17.46;74.50
64908;BME280;64365;-1.756;110.040;2022-10-31T09:36:28;101957.03;;;17.36;75.41
64908;BME280;64365;-1.756;110.040;2022-10-31T09:38:55;101960.50;;;17.25;75.78
64908;BME280;64365;-1.756;110.040;2022-10-31T09:41:28;101948.97;;;17.17;76.50
64908;BME280;64365;-1.756;110.040;2022-10-31T09:44:01;101942.78;;;17.10;77.03
64908;BME280;64365;-1.756;110.040;2022-10-31T09:46:37;101943.94;;;17.09;77.52
64908;BME280;64365;-1.756;110.040;2022-10-31T09:49:29;101947.03;;;17.11;78.19
64908;BME280;64365;-1.756;110.040;2022-10-31T09:52:02;101941.66;;;17.11;78.25
64908;BME280;64365;-1.756;110.040;2022-10-31T09:54:34;101945.47;;;17.03;78.26
64908;BME280;64365;-1.756;110.040;2022-10-31T09:57:03;101942.41;;;16.97;78.33
64908;BME280;64365;-1.756;110.040;2022-10-31T09:59:32;101942.78;;;16.95;78.50
64908;BME280;64365;-1.756;110.040;2022-10-31T10:02:04;101943.50;;;16.89;79.21
64908;BME280;64365;-1.756;110.040;2022-10-31T10:04:39;101925.41;;;16.75;80.31
64908;BME280;64365;-1.756;110.040;2022-10-31T10:07:19;101925.81;;;16.77;80.02
64908;BME280;64365;-1.756;110.040;2022-10-31T10:09:49;101920.81;;;16.75;79.92
64908;BME280;64365;-1.756;110.040;2022-10-31T10:12:19;101915.06;;;16.77;80.38
64908;BME280;64365;-1.756;110.040;2022-10-31T10:15:00;101917.34;;;16.75;80.95
64908;BME280;64365;-1.756;110.040;2022-10-31T10:17:37;101919.25;;;16.71;81.58
64908;BME280;64365;-1.756;110.040;2022-10-31T10:20:23;101912.00;;;16.71;81.57
64908;BME280;64365;-1.756;110.040;2022-10-31T10:22:59;101915.44;;;16.72;81.41
64908;BME280;64365;-1.756;110.040;2022-10-31T10:25:33;101916.53;;;16.60;81.28
64908;BME280;64365;-1.756;110.040;2022-10-31T10:28:08;101908.84;;;16.58;82.21
64908;BME280;64365;-1.756;110.040;2022-10-31T10:30:40;101908.47;;;16.56;82.19
64908;BME280;64365;-1.756;110.040;2022-10-31T10:33:14;101908.84;;;16.58;82.44
64908;BME280;64365;-1.756;110.040;2022-10-31T10:35:44;101909.25;;;16.60;81.29
64908;BME280;64365;-1.756;110.040;2022-10-31T10:38:20;101896.22;;;16.62;81.19
64908;BME280;64365;-1.756;110.040;2022-10-31T10:40:50;101902.00;;;16.72;81.10
64908;BME280;64365;-1.756;110.040;2022-10-31T10:43:21;101893.97;;;16.72;80.37
64908;BME280;64365;-1.756;110.040;2022-10-31T10:45:50;101888.59;;;16.79;79.97
64908;BME280;64365;-1.756;110.040;2022-10-31T10:48:43;101892.53;;;16.99;79.45
64908;BME280;64365;-1.756;110.040;2022-10-31T10:51:30;101875.66;;;17.13;77.71
64908;BME280;64365;-1.756;110.040;2022-10-31T10:54:08;101867.63;;;17.24;77.37
64908;BME280;64365;-1.756;110.040;2022-10-31T10:56:47;101862.63;;;17.37;77.28
64908;BME280;64365;-1.756;110.040;2022-10-31T10:59:19;101861.84;;;17.44;76.59
64908;BME280;64365;-1.756;110.040;2022-10-31T11:01:48;101855.69;;;17.50;76.41
64908;BME280;64365;-1.756;110.040;2022-10-31T11:04:30;101836.13;;;17.57;76.39
64908;BME280;64365;-1.756;110.040;2022-10-31T11:07:02;101833.41;;;17.68;76.26
64908;BME280;64365;-1.756;110.040;2022-10-31T11:09:29;101816.53;;;17.67;76.15
64908;BME280;64365;-1.756;110.040;2022-10-31T11:11:56;101826.50;;;17.56;74.92
64908;BME280;64365;-1.756;110.040;2022-10-31T11:14:24;101820.34;;;17.63;75.62
64908;BME280;64365;-1.756;110.040;2022-10-31T11:16:55;101811.16;;;17.53;75.59
64908;BME280;64365;-1.756;110.040;2022-10-31T11:19:23;101794.28;;;17.34;75.95
64908;BME280;64365;-1.756;110.040;2022-10-31T11:21:53;101796.97;;;17.38;76.13
64908;BME280;64365;-1.756;110.040;2022-10-31T11:24:21;101788.56;;;17.36;76.34
64908;BME280;64365;-1.756;110.040;2022-10-31T11:26:51;101792.38;;;17.42;76.74
64908;BME280;64365;-1.756;110.040;2022-10-31T11:29:21;101784.31;;;17.39;76.63
64908;BME280;64365;-1.756;110.040;2022-10-31T11:31:51;101789.69;;;17.35;76.44
64908;BME280;64365;-1.756;110.040;2022-10-31T11:34:27;101799.28;;;17.29;76.75
64908;BME280;64365;-1.756;110.040;2022-10-31T11:37:01;101804.28;;;17.30;77.53
64908;BME280;64365;-1.756;110.040;2022-10-31T11:39:29;101801.97;;;17.36;77.34
64908;BME280;64365;-1.756;110.040;2022-10-31T11:42:00;101797.75;;;17.39;77.09
64908;BME280;64365;-1.756;110.040;2022-10-31T11:44:29;101796.97;;;17.42;77.17
64908;BME280;64365;-1.756;110.040;2022-10-31T11:46:59;101791.59;;;17.45;77.28
64908;BME280;64365;-1.756;110.040;2022-10-31T11:49:29;101788.91;;;17.49;77.36
64908;BME280;64365;-1.756;110.040;2022-10-31T11:52:00;101789.69;;;17.49;76.83
64908;BME280;64365;-1.756;110.040;2022-10-31T11:54:30;101783.91;;;17.51;77.31
64908;BME280;64365;-1.756;110.040;2022-10-31T11:56:59;101772.78;;;17.53;76.95
64908;BME280;64365;-1.756;110.040;2022-10-31T11:59:27;101765.88;;;17.51;77.24
64908;BME280;64365;-1.756;110.040;2022-10-31T12:01:56;101753.56;;;17.50;77.35
64908;BME280;64365;-1.756;110.040;2022-10-31T12:04:30;101742.84;;;17.47;77.77
64908;BME280;64365;-1.756;110.040;2022-10-31T12:06:58;101720.56;;;17.50;77.58
64908;BME280;64365;-1.756;110.040;2022-10-31T12:09:28;101718.25;;;17.52;77.90
64908;BME280;64365;-1.756;110.040;2022-10-31T12:12:13;101712.91;;;17.48;77.95
64908;BME280;64365;-1.756;110.040;2022-10-31T12:14:54;101701.75;;;17.46;77.95
64908;BME280;64365;-1.756;110.040;2022-10-31T12:17:26;101710.22;;;17.48;77.87
64908;BME280;64365;-1.756;110.040;2022-10-31T12:20:03;101702.53;;;17.47;77.89
64908;BME280;64365;-1.756;110.040;2022-10-31T12:22:42;101708.28;;;17.49;77.84
64908;BME280;64365;-1.756;110.040;2022-10-31T12:25:28;101712.91;;;17.45;78.14
64908;BME280;64365;-1.756;110.040;2022-10-31T12:28:12;101711.34;;;17.47;78.27
64908;BME280;64365;-1.756;110.040;2022-10-31T12:30:54;101686.41;;;17.43;78.44
64908;BME280;64365;-1.756;110.040;2022-10-31T12:33:33;101683.69;;;17.50;78.39
64908;BME280;64365;-1.756;110.040;2022-10-31T12:36:14;101677.56;;;17.54;78.51
64908;BME280;64365;-1.756;110.040;2022-10-31T12:38:56;101676.38;;;17.58;78.09
64908;BME280;64365;-1.756;110.040;2022-10-31T12:41:40;101668.31;;;17.58;78.18
64908;BME280;64365;-1.756;110.040;2022-10-31T12:44:21;101677.13;;;17.62;78.06
64908;BME280;64365;-1.756;110.040;2022-10-31T12:47:00;101668.66;;;17.64;78.03
64908;BME280;64365;-1.756;110.040;2022-10-31T12:49:41;101651.00;;;17.66;77.85
64908;BME280;64365;-1.756;110.040;2022-10-31T12:52:20;101649.06;;;17.67;77.71